sensor_id;sensor_type;location;lat;lon;timestamp;temperature;humidity
18169;DHT22;49877;50.398;30.324;2022-10-15T00:01:09;7.90;99.90
18169;DHT22;49877;50.398;30.324;2022-10-15T00:03:37;7.90;99.90
18169;DHT22;49877;50.398;30.324;2022-10-15T00:06:06;7.90;99.90
18169;DHT22;49877;50.398;30.324;2022-10-15T00:08:35;7.90;99.90
18169;DHT22;49877;50.398;30.324;2022-10-15T00:11:04;8.00;99.90
18169;DHT22;49877;50.398;30.324;2022-10-15T00:13:31;8.00;99.90
18169;DHT22;49877;50.398;30.324;2022-10-15T00:15:58;8.00;99.90
18169;DHT22;49877;50.398;30.324;2022-10-15T00:18:25;8.00;99.90
18169;DHT22;49877;50.398;30.324;2022-10-15T00:20:52;8.00;99.90
18169;DHT22;49877;50.398;30.324;2022-10-15T00:23:19;8.00;99.90
18169;DHT22;49877;50.398;30.324;2022-10-15T00:25:47;8.00;99.90
18169;DHT22;49877;50.398;30.324;2022-10-15T00:28:14;8.00;99.90
18169;DHT22;49877;50.398;30.324;2022-10-15T00:30:41;8.10;99.90
18169;DHT22;49877;50.398;30.324;2022-10-15T00:33:07;8.10;99.90
18169;DHT22;49877;50.398;30.324;2022-10-15T00:35:34;8.10;99.90
18169;DHT22;49877;50.398;30.324;2022-10-15T00:38:01;8.10;99.90
18169;DHT22;49877;50.398;30.324;2022-10-15T00:40:28;8.10;99.90
18169;DHT22;49877;50.398;30.324;2022-10-15T00:42:56;8.10;99.90
18169;DHT22;49877;50.398;30.324;2022-10-15T00:45:23;8.10;99.90
18169;DHT22;49877;50.398;30.324;2022-10-15T00:47:50;8.10;99.90
18169;DHT22;49877;50.398;30.324;2022-10-15T00:50:19;8.10;99.90
18169;DHT22;49877;50.398;30.324;2022-10-15T00:52:56;8.10;99.90
18169;DHT22;49877;50.398;30.324;2022-10-15T00:55:28;8.10;99.90
18169;DHT22;49877;50.398;30.324;2022-10-15T00:57:59;8.10;99.90
18169;DHT22;49877;50.398;30.324;2022-10-15T01:00:26;8.10;99.90
18169;DHT22;49877;50.398;30.324;2022-10-15T01:02:53;8.10;99.90
18169;DHT22;49877;50.398;30.324;2022-10-15T01:05:20;8.10;99.90
18169;DHT22;49877;50.398;30.324;2022-10-15T01:07:47;8.20;99.90
18169;DHT22;49877;50.398;30.324;2022-10-15T01:10:15;8.10;99.90
18169;DHT22;49877;50.398;30.324;2022-10-15T01:12:52;8.20;99.90
18169;DHT22;49877;50.398;30.324;2022-10-15T01:15:25;8.10;99.90
18169;DHT22;49877;50.398;30.324;2022-10-15T01:17:57;8.10;99.90
18169;DHT22;49877;50.398;30.324;2022-10-15T01:20:55;8.20;99.90
18169;DHT22;49877;50.398;30.324;2022-10-15T01:23:59;8.20;99.90
18169;DHT22;49877;50.398;30.324;2022-10-15T01:29:44;8.10;99.90
18169;DHT22;49877;50.398;30.324;2022-10-15T01:32:19;8.10;99.90
18169;DHT22;49877;50.398;30.324;2022-10-15T01:34:52;8.10;99.90
18169;DHT22;49877;50.398;30.324;2022-10-15T01:37:28;8.00;99.90
18169;DHT22;49877;50.398;30.324;2022-10-15T01:40:03;8.00;99.90
18169;DHT22;49877;50.398;30.324;2022-10-15T01:42:35;8.00;99.90
18169;DHT22;49877;50.398;30.324;2022-10-15T01:45:07;7.90;99.90
18169;DHT22;49877;50.398;30.324;2022-10-15T01:47:41;7.90;99.90
18169;DHT22;49877;50.398;30.324;2022-10-15T01:50:11;7.90;99.90
18169;DHT22;49877;50.398;30.324;2022-10-15T01:52:40;7.90;99.90
18169;DHT22;49877;50.398;30.324;2022-10-15T01:55:10;7.90;99.90
18169;DHT22;49877;50.398;30.324;2022-10-15T01:57:41;7.90;99.90
18169;DHT22;49877;50.398;30.324;2022-10-15T02:00:09;7.80;99.90
18169;DHT22;49877;50.398;30.324;2022-10-15T02:02:38;7.80;99.90
18169;DHT22;49877;50.398;30.324;2022-10-15T02:05:09;7.80;99.90
18169;DHT22;49877;50.398;30.324;2022-10-15T02:07:42;7.80;99.90
18169;DHT22;49877;50.398;30.324;2022-10-15T02:10:16;7.80;99.90
18169;DHT22;49877;50.398;30.324;2022-10-15T02:12:52;7.80;99.90
18169;DHT22;49877;50.398;30.324;2022-10-15T02:15:29;7.80;99.90
18169;DHT22;49877;50.398;30.324;2022-10-15T02:18:04;7.90;99.90
18169;DHT22;49877;50.398;30.324;2022-10-15T02:20:36;7.90;99.90
18169;DHT22;49877;50.398;30.324;2022-10-15T02:23:10;7.90;99.90
18169;DHT22;49877;50.398;30.324;2022-10-15T02:25:39;7.90;99.90
18169;DHT22;49877;50.398;30.324;2022-10-15T02:28:08;7.90;99.90
18169;DHT22;49877;50.398;30.324;2022-10-15T02:30:36;8.00;99.90
18169;DHT22;49877;50.398;30.324;2022-10-15T02:33:06;7.90;99.90
18169;DHT22;49877;50.398;30.324;2022-10-15T02:35:34;8.00;99.90
18169;DHT22;49877;50.398;30.324;2022-10-15T02:38:04;8.00;99.90
18169;DHT22;49877;50.398;30.324;2022-10-15T02:40:33;8.00;99.90
18169;DHT22;49877;50.398;30.324;2022-10-15T02:43:04;8.00;99.90
18169;DHT22;49877;50.398;30.324;2022-10-15T02:45:31;8.00;99.90
18169;DHT22;49877;50.398;30.324;2022-10-15T02:47:58;8.00;99.90
18169;DHT22;49877;50.398;30.324;2022-10-15T02:50:26;8.10;99.90
18169;DHT22;49877;50.398;30.324;2022-10-15T02:52:53;8.10;99.90
18169;DHT22;49877;50.398;30.324;2022-10-15T02:55:19;8.10;99.90
18169;DHT22;49877;50.398;30.324;2022-10-15T02:57:46;8.00;99.90
18169;DHT22;49877;50.398;30.324;2022-10-15T03:00:14;8.00;99.90
18169;DHT22;49877;50.398;30.324;2022-10-15T03:02:41;8.00;99.90
18169;DHT22;49877;50.398;30.324;2022-10-15T03:05:08;8.00;99.90
18169;DHT22;49877;50.398;30.324;2022-10-15T03:07:36;8.00;99.90
18169;DHT22;49877;50.398;30.324;2022-10-15T03:10:04;8.00;99.90
18169;DHT22;49877;50.398;30.324;2022-10-15T03:12:31;8.00;99.90
18169;DHT22;49877;50.398;30.324;2022-10-15T03:14:58;8.00;99.90
18169;DHT22;49877;50.398;30.324;2022-10-15T03:17:25;8.00;99.90
18169;DHT22;49877;50.398;30.324;2022-10-15T03:19:52;8.00;99.90
18169;DHT22;49877;50.398;30.324;2022-10-15T03:22:19;8.00;99.90
18169;DHT22;49877;50.398;30.324;2022-10-15T03:24:47;8.00;99.90
18169;DHT22;49877;50.398;30.324;2022-10-15T03:27:14;8.00;99.90
18169;DHT22;49877;50.398;30.324;2022-10-15T03:29:40;8.00;99.90
18169;DHT22;49877;50.398;30.324;2022-10-15T03:32:07;7.90;99.90
18169;DHT22;49877;50.398;30.324;2022-10-15T03:34:34;7.90;99.90
18169;DHT22;49877;50.398;30.324;2022-10-15T03:37:01;7.90;99.90
18169;DHT22;49877;50.398;30.324;2022-10-15T03:39:28;7.90;99.90
18169;DHT22;49877;50.398;30.324;2022-10-15T03:41:56;7.90;99.90
18169;DHT22;49877;50.398;30.324;2022-10-15T03:44:22;7.90;99.90
18169;DHT22;49877;50.398;30.324;2022-10-15T03:46:49;7.90;99.90
18169;DHT22;49877;50.398;30.324;2022-10-15T03:49:16;7.90;99.90
18169;DHT22;49877;50.398;30.324;2022-10-15T03:51:43;7.90;99.90
18169;DHT22;49877;50.398;30.324;2022-10-15T03:54:10;7.90;99.90
18169;DHT22;49877;50.398;30.324;2022-10-15T03:56:36;7.90;99.90
18169;DHT22;49877;50.398;30.324;2022-10-15T03:59:04;7.90;99.90
18169;DHT22;49877;50.398;30.324;2022-10-15T04:01:31;7.90;99.90
18169;DHT22;49877;50.398;30.324;2022-10-15T04:03:58;7.80;99.90
18169;DHT22;49877;50.398;30.324;2022-10-15T04:06:25;7.80;99.90
18169;DHT22;49877;50.398;30.324;2022-10-15T04:08:51;7.80;99.90
18169;DHT22;49877;50.398;30.324;2022-10-15T04:11:18;7.80;99.90
18169;DHT22;49877;50.398;30.324;2022-10-15T04:13:47;7.80;99.90
18169;DHT22;49877;50.398;30.324;2022-10-15T04:16:16;7.80;99.90
18169;DHT22;49877;50.398;30.324;2022-10-15T04:18:43;7.80;99.90
18169;DHT22;49877;50.398;30.324;2022-10-15T04:21:10;7.80;99.90
18169;DHT22;49877;50.398;30.324;2022-10-15T04:23:37;7.80;99.90
18169;DHT22;49877;50.398;30.324;2022-10-15T04:26:04;7.80;99.90
18169;DHT22;49877;50.398;30.324;2022-10-15T04:28:32;7.80;99.90
18169;DHT22;49877;50.398;30.324;2022-10-15T04:30:59;7.80;99.90
18169;DHT22;49877;50.398;30.324;2022-10-15T04:33:28;7.70;99.90
18169;DHT22;49877;50.398;30.324;2022-10-15T04:35:59;7.80;99.90
18169;DHT22;49877;50.398;30.324;2022-10-15T04:38:26;7.70;99.90
18169;DHT22;49877;50.398;30.324;2022-10-15T04:41:00;7.70;99.90
18169;DHT22;49877;50.398;30.324;2022-10-15T04:43:27;7.70;99.90
18169;DHT22;49877;50.398;30.324;2022-10-15T04:45:56;7.70;99.90
18169;DHT22;49877;50.398;30.324;2022-10-15T04:48:23;7.60;99.90
18169;DHT22;49877;50.398;30.324;2022-10-15T04:50:51;7.60;99.90
18169;DHT22;49877;50.398;30.324;2022-10-15T04:53:18;7.60;99.90
18169;DHT22;49877;50.398;30.324;2022-10-15T04:55:45;7.60;99.90
18169;DHT22;49877;50.398;30.324;2022-10-15T04:58:12;7.60;99.90
18169;DHT22;49877;50.398;30.324;2022-10-15T05:00:39;7.60;99.90
18169;DHT22;49877;50.398;30.324;2022-10-15T05:03:06;7.60;99.90
18169;DHT22;49877;50.398;30.324;2022-10-15T05:05:33;7.60;99.90
18169;DHT22;49877;50.398;30.324;2022-10-15T05:08:01;7.70;99.90
18169;DHT22;49877;50.398;30.324;2022-10-15T05:10:29;7.70;99.90
18169;DHT22;49877;50.398;30.324;2022-10-15T05:12:55;7.70;99.90
18169;DHT22;49877;50.398;30.324;2022-10-15T05:15:24;7.70;99.90
18169;DHT22;49877;50.398;30.324;2022-10-15T05:17:51;7.80;99.90
18169;DHT22;49877;50.398;30.324;2022-10-15T05:20:18;7.80;99.90
18169;DHT22;49877;50.398;30.324;2022-10-15T05:22:45;7.80;99.90
18169;DHT22;49877;50.398;30.324;2022-10-15T05:25:13;7.80;99.90
18169;DHT22;49877;50.398;30.324;2022-10-15T05:27:40;7.80;99.90
18169;DHT22;49877;50.398;30.324;2022-10-15T05:30:07;7.80;99.90
18169;DHT22;49877;50.398;30.324;2022-10-15T05:32:34;7.90;99.90
18169;DHT22;49877;50.398;30.324;2022-10-15T05:35:01;7.90;99.90
18169;DHT22;49877;50.398;30.324;2022-10-15T05:37:28;8.00;99.90
18169;DHT22;49877;50.398;30.324;2022-10-15T05:39:54;8.10;99.90
18169;DHT22;49877;50.398;30.324;2022-10-15T05:42:23;8.10;99.90
18169;DHT22;49877;50.398;30.324;2022-10-15T05:44:49;8.10;99.90
18169;DHT22;49877;50.398;30.324;2022-10-15T05:47:16;8.20;99.90
18169;DHT22;49877;50.398;30.324;2022-10-15T05:49:43;8.10;99.90
18169;DHT22;49877;50.398;30.324;2022-10-15T05:52:10;8.20;99.90
18169;DHT22;49877;50.398;30.324;2022-10-15T05:54:36;8.30;99.90
18169;DHT22;49877;50.398;30.324;2022-10-15T05:57:03;8.30;99.90
18169;DHT22;49877;50.398;30.324;2022-10-15T05:59:31;8.30;99.90
18169;DHT22;49877;50.398;30.324;2022-10-15T06:01:58;8.40;99.90
18169;DHT22;49877;50.398;30.324;2022-10-15T06:04:25;8.50;99.90
18169;DHT22;49877;50.398;30.324;2022-10-15T06:06:52;8.60;99.90
18169;DHT22;49877;50.398;30.324;2022-10-15T06:09:18;8.70;99.90
18169;DHT22;49877;50.398;30.324;2022-10-15T06:11:45;8.70;99.90
18169;DHT22;49877;50.398;30.324;2022-10-15T06:14:12;8.80;99.90
18169;DHT22;49877;50.398;30.324;2022-10-15T06:16:40;8.80;99.90
18169;DHT22;49877;50.398;30.324;2022-10-15T06:19:07;8.90;99.90
18169;DHT22;49877;50.398;30.324;2022-10-15T06:21:34;9.00;99.90
18169;DHT22;49877;50.398;30.324;2022-10-15T06:24:00;9.10;99.90
18169;DHT22;49877;50.398;30.324;2022-10-15T06:26:27;9.10;99.90
18169;DHT22;49877;50.398;30.324;2022-10-15T06:28:54;9.20;99.90
18169;DHT22;49877;50.398;30.324;2022-10-15T06:31:21;9.20;99.90
18169;DHT22;49877;50.398;30.324;2022-10-15T06:33:49;9.30;99.90
18169;DHT22;49877;50.398;30.324;2022-10-15T06:36:16;9.50;99.90
18169;DHT22;49877;50.398;30.324;2022-10-15T06:38:43;9.50;99.90
18169;DHT22;49877;50.398;30.324;2022-10-15T06:41:10;9.60;99.90
18169;DHT22;49877;50.398;30.324;2022-10-15T06:43:37;9.70;99.90
18169;DHT22;49877;50.398;30.324;2022-10-15T06:46:04;9.70;99.90
18169;DHT22;49877;50.398;30.324;2022-10-15T06:48:31;9.90;99.90
18169;DHT22;49877;50.398;30.324;2022-10-15T06:51:00;9.90;99.90
18169;DHT22;49877;50.398;30.324;2022-10-15T06:53:29;10.00;99.90
18169;DHT22;49877;50.398;30.324;2022-10-15T06:55:56;10.10;99.90
18169;DHT22;49877;50.398;30.324;2022-10-15T06:58:23;10.10;99.90
18169;DHT22;49877;50.398;30.324;2022-10-15T07:00:50;10.20;99.90
18169;DHT22;49877;50.398;30.324;2022-10-15T07:03:17;10.30;99.90
18169;DHT22;49877;50.398;30.324;2022-10-15T07:05:44;10.30;99.90
18169;DHT22;49877;50.398;30.324;2022-10-15T07:08:12;10.30;99.90
18169;DHT22;49877;50.398;30.324;2022-10-15T07:10:39;10.30;99.90
18169;DHT22;49877;50.398;30.324;2022-10-15T07:13:05;10.40;99.90
18169;DHT22;49877;50.398;30.324;2022-10-15T07:15:32;10.50;99.90
18169;DHT22;49877;50.398;30.324;2022-10-15T07:17:59;10.50;99.90
18169;DHT22;49877;50.398;30.324;2022-10-15T07:20:27;10.60;99.90
18169;DHT22;49877;50.398;30.324;2022-10-15T07:22:55;10.60;99.90
18169;DHT22;49877;50.398;30.324;2022-10-15T07:25:24;10.70;99.90
18169;DHT22;49877;50.398;30.324;2022-10-15T07:27:51;10.70;99.90
18169;DHT22;49877;50.398;30.324;2022-10-15T07:30:20;10.80;99.90
18169;DHT22;49877;50.398;30.324;2022-10-15T07:32:47;10.90;99.90
18169;DHT22;49877;50.398;30.324;2022-10-15T07:35:14;10.90;99.90
18169;DHT22;49877;50.398;30.324;2022-10-15T07:37:41;11.00;99.90
18169;DHT22;49877;50.398;30.324;2022-10-15T07:40:08;11.00;99.90
18169;DHT22;49877;50.398;30.324;2022-10-15T07:42:36;11.10;99.90
18169;DHT22;49877;50.398;30.324;2022-10-15T07:45:06;11.10;99.90
18169;DHT22;49877;50.398;30.324;2022-10-15T07:47:33;11.20;99.90
18169;DHT22;49877;50.398;30.324;2022-10-15T07:49:59;11.30;99.90
18169;DHT22;49877;50.398;30.324;2022-10-15T07:52:26;11.30;99.90
18169;DHT22;49877;50.398;30.324;2022-10-15T07:54:53;11.40;99.90
18169;DHT22;49877;50.398;30.324;2022-10-15T07:57:20;11.50;99.90
18169;DHT22;49877;50.398;30.324;2022-10-15T07:59:48;11.50;99.90
18169;DHT22;49877;50.398;30.324;2022-10-15T08:02:15;11.60;99.90
18169;DHT22;49877;50.398;30.324;2022-10-15T08:04:42;11.60;99.90
18169;DHT22;49877;50.398;30.324;2022-10-15T08:07:09;11.70;99.90
18169;DHT22;49877;50.398;30.324;2022-10-15T08:09:36;11.80;99.90
18169;DHT22;49877;50.398;30.324;2022-10-15T08:12:03;11.80;99.90
18169;DHT22;49877;50.398;30.324;2022-10-15T08:14:31;11.90;99.90
18169;DHT22;49877;50.398;30.324;2022-10-15T08:17:00;11.90;99.90
18169;DHT22;49877;50.398;30.324;2022-10-15T08:19:27;11.90;99.90
18169;DHT22;49877;50.398;30.324;2022-10-15T08:21:53;12.00;99.90
18169;DHT22;49877;50.398;30.324;2022-10-15T08:24:21;12.00;99.90
18169;DHT22;49877;50.398;30.324;2022-10-15T08:26:47;12.10;99.90
18169;DHT22;49877;50.398;30.324;2022-10-15T08:29:14;12.10;99.90
18169;DHT22;49877;50.398;30.324;2022-10-15T08:31:41;12.20;99.90
18169;DHT22;49877;50.398;30.324;2022-10-15T08:34:10;12.20;99.90
18169;DHT22;49877;50.398;30.324;2022-10-15T08:36:37;12.30;99.90
18169;DHT22;49877;50.398;30.324;2022-10-15T08:39:04;12.30;99.90
18169;DHT22;49877;50.398;30.324;2022-10-15T08:41:34;12.40;99.90
18169;DHT22;49877;50.398;30.324;2022-10-15T08:44:03;12.40;99.90
18169;DHT22;49877;50.398;30.324;2022-10-15T08:46:35;12.50;99.90
18169;DHT22;49877;50.398;30.324;2022-10-15T08:49:04;12.50;99.90
18169;DHT22;49877;50.398;30.324;2022-10-15T08:51:37;12.50;99.90
18169;DHT22;49877;50.398;30.324;2022-10-15T08:54:09;12.60;99.90
18169;DHT22;49877;50.398;30.324;2022-10-15T08:56:42;12.60;99.90
18169;DHT22;49877;50.398;30.324;2022-10-15T08:59:16;12.60;99.90
18169;DHT22;49877;50.398;30.324;2022-10-15T09:01:52;12.70;99.90
18169;DHT22;49877;50.398;30.324;2022-10-15T09:04:26;12.70;99.90
18169;DHT22;49877;50.398;30.324;2022-10-15T09:07:01;12.80;99.90
18169;DHT22;49877;50.398;30.324;2022-10-15T09:09:35;12.80;99.90
18169;DHT22;49877;50.398;30.324;2022-10-15T09:12:17;12.80;99.90
18169;DHT22;49877;50.398;30.324;2022-10-15T09:14:47;12.90;99.90
18169;DHT22;49877;50.398;30.324;2022-10-15T09:17:19;12.90;99.90
18169;DHT22;49877;50.398;30.324;2022-10-15T09:19:49;12.90;99.90
18169;DHT22;49877;50.398;30.324;2022-10-15T09:22:23;13.00;99.90
18169;DHT22;49877;50.398;30.324;2022-10-15T09:24:51;13.00;99.90
18169;DHT22;49877;50.398;30.324;2022-10-15T09:27:26;13.00;99.90
18169;DHT22;49877;50.398;30.324;2022-10-15T09:30:02;13.10;99.90
18169;DHT22;49877;50.398;30.324;2022-10-15T09:32:34;13.10;99.90
18169;DHT22;49877;50.398;30.324;2022-10-15T09:35:10;13.10;99.90
18169;DHT22;49877;50.398;30.324;2022-10-15T09:37:47;13.20;99.90
18169;DHT22;49877;50.398;30.324;2022-10-15T09:40:28;13.20;99.90
18169;DHT22;49877;50.398;30.324;2022-10-15T09:42:57;13.20;99.90
18169;DHT22;49877;50.398;30.324;2022-10-15T09:45:25;13.20;99.90
18169;DHT22;49877;50.398;30.324;2022-10-15T09:47:56;13.20;99.90
18169;DHT22;49877;50.398;30.324;2022-10-15T09:50:28;13.30;99.90
18169;DHT22;49877;50.398;30.324;2022-10-15T09:53:06;13.30;99.90
18169;DHT22;49877;50.398;30.324;2022-10-15T09:55:42;13.40;99.90
18169;DHT22;49877;50.398;30.324;2022-10-15T09:58:14;13.40;99.90
18169;DHT22;49877;50.398;30.324;2022-10-15T10:00:55;13.40;99.90
18169;DHT22;49877;50.398;30.324;2022-10-15T10:03:23;13.40;99.90
18169;DHT22;49877;50.398;30.324;2022-10-15T10:05:58;13.40;99.90
18169;DHT22;49877;50.398;30.324;2022-10-15T10:08:30;13.50;99.90
18169;DHT22;49877;50.398;30.324;2022-10-15T10:10:59;13.50;99.90
18169;DHT22;49877;50.398;30.324;2022-10-15T10:13:29;13.50;99.90
18169;DHT22;49877;50.398;30.324;2022-10-15T10:16:02;13.50;99.90
18169;DHT22;49877;50.398;30.324;2022-10-15T10:18:29;13.60;99.90
18169;DHT22;49877;50.398;30.324;2022-10-15T10:20:58;13.60;99.90
18169;DHT22;49877;50.398;30.324;2022-10-15T10:23:31;13.60;99.90
18169;DHT22;49877;50.398;30.324;2022-10-15T10:26:00;13.70;99.90
18169;DHT22;49877;50.398;30.324;2022-10-15T10:28:32;13.70;99.90
18169;DHT22;49877;50.398;30.324;2022-10-15T10:31:02;13.70;99.90
18169;DHT22;49877;50.398;30.324;2022-10-15T10:33:33;13.60;99.90
18169;DHT22;49877;50.398;30.324;2022-10-15T10:36:01;13.70;99.90
18169;DHT22;49877;50.398;30.324;2022-10-15T10:38:32;13.70;99.90
18169;DHT22;49877;50.398;30.324;2022-10-15T10:41:00;13.80;99.90
18169;DHT22;49877;50.398;30.324;2022-10-15T10:43:32;13.80;99.90
18169;DHT22;49877;50.398;30.324;2022-10-15T10:46:01;13.80;99.90
18169;DHT22;49877;50.398;30.324;2022-10-15T10:48:37;13.70;99.90
18169;DHT22;49877;50.398;30.324;2022-10-15T10:51:10;13.70;99.90
18169;DHT22;49877;50.398;30.324;2022-10-15T10:53:46;13.80;99.90
18169;DHT22;49877;50.398;30.324;2022-10-15T10:56:16;13.80;99.90
18169;DHT22;49877;50.398;30.324;2022-10-15T10:58:45;13.80;99.90
18169;DHT22;49877;50.398;30.324;2022-10-15T11:01:14;13.90;99.90
18169;DHT22;49877;50.398;30.324;2022-10-15T11:03:43;13.80;99.90
18169;DHT22;49877;50.398;30.324;2022-10-15T11:06:22;13.80;99.90
18169;DHT22;49877;50.398;30.324;2022-10-15T11:09:01;13.90;99.90
18169;DHT22;49877;50.398;30.324;2022-10-15T11:11:36;13.90;99.90
18169;DHT22;49877;50.398;30.324;2022-10-15T11:14:11;13.90;99.90
18169;DHT22;49877;50.398;30.324;2022-10-15T11:16:46;13.90;99.90
18169;DHT22;49877;50.398;30.324;2022-10-15T11:19:24;13.90;99.90
18169;DHT22;49877;50.398;30.324;2022-10-15T11:24:51;14.00;99.90
18169;DHT22;49877;50.398;30.324;2022-10-15T11:27:42;14.00;99.90
18169;DHT22;49877;50.398;30.324;2022-10-15T11:30:24;14.00;99.90
18169;DHT22;49877;50.398;30.324;2022-10-15T11:32:57;14.00;99.90
18169;DHT22;49877;50.398;30.324;2022-10-15T11:35:39;14.00;99.90
18169;DHT22;49877;50.398;30.324;2022-10-15T11:38:16;14.10;99.90
18169;DHT22;49877;50.398;30.324;2022-10-15T11:40:55;14.10;99.90
18169;DHT22;49877;50.398;30.324;2022-10-15T11:43:37;14.10;99.90
18169;DHT22;49877;50.398;30.324;2022-10-15T11:46:10;14.10;99.90
18169;DHT22;49877;50.398;30.324;2022-10-15T11:48:52;14.10;99.90
18169;DHT22;49877;50.398;30.324;2022-10-15T11:51:26;14.10;99.90
18169;DHT22;49877;50.398;30.324;2022-10-15T11:54:12;14.10;99.90
18169;DHT22;49877;50.398;30.324;2022-10-15T11:56:45;14.10;99.90
18169;DHT22;49877;50.398;30.324;2022-10-15T11:59:22;14.20;99.90
18169;DHT22;49877;50.398;30.324;2022-10-15T12:01:56;14.10;99.90
18169;DHT22;49877;50.398;30.324;2022-10-15T12:17:24;14.10;99.90
18169;DHT22;49877;50.398;30.324;2022-10-15T12:20:00;14.20;99.90
18169;DHT22;49877;50.398;30.324;2022-10-15T12:22:34;14.20;99.90
18169;DHT22;49877;50.398;30.324;2022-10-15T12:25:04;14.20;99.90
18169;DHT22;49877;50.398;30.324;2022-10-15T12:27:33;14.20;99.90
18169;DHT22;49877;50.398;30.324;2022-10-15T12:30:30;14.20;99.90
18169;DHT22;49877;50.398;30.324;2022-10-15T12:33:00;14.20;99.90
18169;DHT22;49877;50.398;30.324;2022-10-15T12:35:34;14.20;99.90
18169;DHT22;49877;50.398;30.324;2022-10-15T12:38:19;14.20;99.90
18169;DHT22;49877;50.398;30.324;2022-10-15T12:40:55;14.20;99.90
18169;DHT22;49877;50.398;30.324;2022-10-15T12:43:23;14.20;99.90
18169;DHT22;49877;50.398;30.324;2022-10-15T12:45:51;14.10;99.90
18169;DHT22;49877;50.398;30.324;2022-10-15T12:48:28;14.10;99.90
18169;DHT22;49877;50.398;30.324;2022-10-15T12:51:28;14.10;99.90
18169;DHT22;49877;50.398;30.324;2022-10-15T12:53:55;14.00;99.90
18169;DHT22;49877;50.398;30.324;2022-10-15T12:56:35;14.10;99.90
18169;DHT22;49877;50.398;30.324;2022-10-15T12:59:03;14.00;99.90
18169;DHT22;49877;50.398;30.324;2022-10-15T13:01:49;14.00;99.90
18169;DHT22;49877;50.398;30.324;2022-10-15T13:04:18;14.00;99.90
18169;DHT22;49877;50.398;30.324;2022-10-15T13:06:46;14.00;99.90
18169;DHT22;49877;50.398;30.324;2022-10-15T13:09:36;14.00;99.90
18169;DHT22;49877;50.398;30.324;2022-10-15T13:12:03;13.90;99.90
18169;DHT22;49877;50.398;30.324;2022-10-15T13:14:32;13.90;99.90
18169;DHT22;49877;50.398;30.324;2022-10-15T13:17:04;14.00;99.90
18169;DHT22;49877;50.398;30.324;2022-10-15T13:19:35;14.00;99.90
18169;DHT22;49877;50.398;30.324;2022-10-15T13:22:05;13.90;99.90
18169;DHT22;49877;50.398;30.324;2022-10-15T13:24:42;13.90;99.90
18169;DHT22;49877;50.398;30.324;2022-10-15T13:27:14;13.90;99.90
18169;DHT22;49877;50.398;30.324;2022-10-15T13:29:53;13.90;99.90
18169;DHT22;49877;50.398;30.324;2022-10-15T13:32:21;13.80;99.90
18169;DHT22;49877;50.398;30.324;2022-10-15T13:34:49;13.80;99.90
18169;DHT22;49877;50.398;30.324;2022-10-15T13:37:19;13.80;99.90
18169;DHT22;49877;50.398;30.324;2022-10-15T13:39:49;13.80;99.90
18169;DHT22;49877;50.398;30.324;2022-10-15T13:42:18;13.70;99.90
18169;DHT22;49877;50.398;30.324;2022-10-15T13:44:56;13.70;99.90
18169;DHT22;49877;50.398;30.324;2022-10-15T13:47:26;13.70;99.90
18169;DHT22;49877;50.398;30.324;2022-10-15T13:50:12;13.60;99.90
18169;DHT22;49877;50.398;30.324;2022-10-15T13:52:40;13.60;99.90
18169;DHT22;49877;50.398;30.324;2022-10-15T13:55:19;13.50;99.90
18169;DHT22;49877;50.398;30.324;2022-10-15T13:57:59;13.50;99.90
18169;DHT22;49877;50.398;30.324;2022-10-15T14:00:29;13.50;99.90
18169;DHT22;49877;50.398;30.324;2022-10-15T14:03:14;13.50;99.90
18169;DHT22;49877;50.398;30.324;2022-10-15T14:05:43;13.40;99.90
18169;DHT22;49877;50.398;30.324;2022-10-15T14:08:16;13.40;99.90
18169;DHT22;49877;50.398;30.324;2022-10-15T14:10:43;13.40;99.90
18169;DHT22;49877;50.398;30.324;2022-10-15T14:13:10;13.40;99.90
18169;DHT22;49877;50.398;30.324;2022-10-15T14:15:39;13.40;99.90
18169;DHT22;49877;50.398;30.324;2022-10-15T14:18:07;13.40;99.90
18169;DHT22;49877;50.398;30.324;2022-10-15T14:20:34;13.30;99.90
18169;DHT22;49877;50.398;30.324;2022-10-15T14:23:02;13.30;99.90
18169;DHT22;49877;50.398;30.324;2022-10-15T14:25:29;13.20;99.90
18169;DHT22;49877;50.398;30.324;2022-10-15T14:27:56;13.20;99.90
18169;DHT22;49877;50.398;30.324;2022-10-15T14:30:27;13.20;99.90
18169;DHT22;49877;50.398;30.324;2022-10-15T14:32:55;13.20;99.90
18169;DHT22;49877;50.398;30.324;2022-10-15T14:35:30;13.20;99.90
18169;DHT22;49877;50.398;30.324;2022-10-15T14:37:59;13.20;99.90
18169;DHT22;49877;50.398;30.324;2022-10-15T14:40:28;13.20;99.90
18169;DHT22;49877;50.398;30.324;2022-10-15T14:43:03;13.10;99.90
18169;DHT22;49877;50.398;30.324;2022-10-15T14:45:36;13.10;99.90
18169;DHT22;49877;50.398;30.324;2022-10-15T14:48:08;13.00;99.90
18169;DHT22;49877;50.398;30.324;2022-10-15T14:50:41;13.00;99.90
18169;DHT22;49877;50.398;30.324;2022-10-15T14:53:14;12.90;99.90
18169;DHT22;49877;50.398;30.324;2022-10-15T14:55:50;12.90;99.90
18169;DHT22;49877;50.398;30.324;2022-10-15T14:58:19;12.80;99.90
18169;DHT22;49877;50.398;30.324;2022-10-15T15:00:53;12.80;99.90
18169;DHT22;49877;50.398;30.324;2022-10-15T15:03:25;12.70;99.90
18169;DHT22;49877;50.398;30.324;2022-10-15T15:05:53;12.60;99.90
18169;DHT22;49877;50.398;30.324;2022-10-15T15:08:24;12.50;99.90
18169;DHT22;49877;50.398;30.324;2022-10-15T15:10:55;12.50;99.90
18169;DHT22;49877;50.398;30.324;2022-10-15T15:13:23;12.40;99.90
18169;DHT22;49877;50.398;30.324;2022-10-15T15:15:51;12.30;99.90
18169;DHT22;49877;50.398;30.324;2022-10-15T15:18:18;12.30;99.90
18169;DHT22;49877;50.398;30.324;2022-10-15T15:20:46;12.20;99.90
18169;DHT22;49877;50.398;30.324;2022-10-15T15:23:18;12.10;99.90
18169;DHT22;49877;50.398;30.324;2022-10-15T15:25:46;12.10;99.90
18169;DHT22;49877;50.398;30.324;2022-10-15T15:28:16;12.00;99.90
18169;DHT22;49877;50.398;30.324;2022-10-15T15:30:46;11.90;99.90
18169;DHT22;49877;50.398;30.324;2022-10-15T15:33:16;11.80;99.90
18169;DHT22;49877;50.398;30.324;2022-10-15T15:35:46;11.70;99.90
18169;DHT22;49877;50.398;30.324;2022-10-15T15:38:15;11.60;99.90
18169;DHT22;49877;50.398;30.324;2022-10-15T15:40:43;11.50;99.90
18169;DHT22;49877;50.398;30.324;2022-10-15T15:43:12;11.50;99.90
18169;DHT22;49877;50.398;30.324;2022-10-15T15:45:40;11.40;99.90
18169;DHT22;49877;50.398;30.324;2022-10-15T15:48:07;11.30;99.90
18169;DHT22;49877;50.398;30.324;2022-10-15T15:50:35;11.20;99.90
18169;DHT22;49877;50.398;30.324;2022-10-15T15:53:02;11.10;99.90
18169;DHT22;49877;50.398;30.324;2022-10-15T15:55:29;11.00;99.90
18169;DHT22;49877;50.398;30.324;2022-10-15T15:57:56;10.90;99.90
18169;DHT22;49877;50.398;30.324;2022-10-15T16:00:22;10.80;99.90